Main page
METAR-TAF:

METAR-TAF

Airports :

Lechfeld Air Base

Lechfeld, Germany

latitude: 48-11N, longitude: 010-52E, elevation: 555 m

Current weather observation

The report was made 31 minutes ago, at 17:20 UTC
Wind 3 kt from the South
Temperature 1°C
Humidity 93%
Pressure 1020 hPa
Visibility 10 km or more

METAR: ETSL 251720Z AUTO 17003KT 9999 // ////// 01/M00 Q1020 ///

Time: 18:51 (17:51 UTC)

Forecast

The report was made 30 hours and 39 minutes ago, at 11:12 UTC
Forecast valid from 24 at 11 UTC to 24 at 18 UTC
Wind 3 kt from the South
Visibility 10 km or more
Clear sky
Becoming
from 24 at 16 UTC to 24 at 18 UTC
Wind 2 kt from the Southwest
Visibility: 1112 m
Few clouds at a height of 300 ft
Shallow fog

TAF: ETSL 241112Z 2411/2418 18003KT 9999 NSW SKC BECMG 2416/2418 22002KT 6000 MIFG FEW003 CANCEL 1112 BY ETGL

Weather observations and forecasts of more than 4000 airports (METAR and TAF reports).

The available stations are represented by yellow and red dots on the map.

Hover mouse over dot to see the name of the station.

Then click to see weather observations and forecasts.

To change the map : click on the green buttons with a black cross to zoom in, on the green button with a dash to zoom out, or on the green arrows for adjacent maps.


METAR-TAF: